Meteo Giornale » Osservazioni meteo Cina » Hohhot
ore: 03:00 - Osservazioni Meteo Hohhot
Lat. 40° 49' N Lon. 111° 41' E Alt. 1065 metri s.l.m.
13 °C
Sereno
Temp. 24 Ore
10 °C
28 °C
Nord
7.2 Km/h
Dew point 11 °C
Umidità 87 %
Visibilità 10 Km
Il sole sorge alle ore 06:00
Il sole tramonta alle ore 19:05
| Data e Ora | Cielo e Fenomeni | T °C | DP °C | Um. % | Pres. hPa | Vis. km | Vento km/h | |
|---|---|---|---|---|---|---|---|---|
| Oggi h: 03:00 | Sereno | 13 | 11 | 87 | 1019 | 10 | N 7.2 | |
| Oggi h: 02:00 | Sereno | 14 | 11 | 82 | 1019 | 10 | N 7.2 | |
| Oggi h: 01:00 | Sereno | 15 | 12 | 82 | 1019 | 10 | N 3.6 | |
| Oggi h: 00:00 | Poco Nuvoloso | 17 | 12 | 72 | 1019 | 10 | NE 10.8 | |
| Ieri h: 23:00 | Poco Nuvoloso | 17 | 12 | 72 | 1019 | 10 | N 7.2 | |
| Ieri h: 22:00 | Poco Nuvoloso | 19 | 12 | 63 | 1018 | 10 | NE 10.8 | |
| Ieri h: 21:00 | Poco Nuvoloso | 19 | 13 | 68 | 1018 | 10 | NE 10.8 | |
| Ieri h: 20:00 | Poco Nuvoloso | 21 | 14 | 64 | 1018 | 10 | N/NE 10.8 | |
| Ieri h: 19:00 | Poco Nuvoloso | 23 | 14 | 56 | 1017 | 10 | N 7.2 | |
| Ieri h: 18:00 | Poco Nuvoloso | 27 | 13 | 42 | 1017 | 10 | N 7.2 | |
| Ieri h: 17:00 | Poco Nuvoloso | 28 | 12 | 37 | 1017 | 10 | N 7.2 | |
| Ieri h: 16:00 | Sereno | 28 | 11 | 34 | 1017 | 10 | S/SO 10.8 | |
| Ieri h: 15:00 | Sereno | 28 | 11 | 34 | 1017 | 10 | S 10.8 | |
| Ieri h: 14:00 | Poco Nuvoloso | 28 | 12 | 37 | 1018 | 10 | N 7.2 | |
| Ieri h: 13:00 | Sereno | 27 | 10 | 34 | 1019 | 10 | N 7.2 | |
| Ieri h: 12:00 | Sereno | 26 | 9 | 34 | 1019 | 10 | N 3.6 | |
| Ieri h: 11:00 | Sereno | 25 | 9 | 36 | 1020 | 10 | N 7.2 | |
| Ieri h: 10:00 | Sereno | 24 | 9 | 38 | 1021 | 10 | E 10.8 | |
| Ieri h: 09:00 | Sereno | 21 | 10 | 49 | 1020 | 10 | E/NE 10.8 | |
| Ieri h: 08:00 | Sereno | 17 | 9 | 59 | 1021 | 10 | N 7.2 | |
| Ieri h: 07:00 | Sereno | 14 | 8 | 67 | 1021 | 10 | N 7.2 | |
| Ieri h: 06:00 | Sereno | 10 | 7 | 81 | 1020 | 10 | E/NE 10.8 | |
| Ieri h: 05:00 | Sereno | 11 | 7 | 76 | 1020 | 10 | E/NE 10.8 | |
| Ieri h: 04:00 | Sereno | 11 | 7 | 76 | 1020 | 10 | N 7.2 | |



